Terminal Aerodrome Forecast
Issued by NWS Hastings, NE

Home | Current Version | Previous Version | Text Only | Print | Product List | Glossary On
Versions: 1 2 3 4 5 6 7 8 9 10 11 12 13 14 15 16 17 18 19 20 21 22 23 24 25 26 27 28 29 30
000
FTUS45 KGID 171720
TAFEAR
TAF
KEAR 171720Z 1718/1818 07009KT P6SM BKN015 OVC020
     FM171900 07008KT P6SM SCT015 OVC025
     FM180200 08008KT P6SM SCT007 OVC015
     FM180500 09006KT 6SM BR SCT005 OVC010
     FM181000 09006KT 4SM BR BKN005
     FM181600 11008KT P6SM BKN010=

USA.gov is the U.S. government's official web portal to all federal, state and local government web resources and services.